sensor_id;sensor_type;location;lat;lon;timestamp;P1;P2;P0
62778;PMS7003;48821;48.796;2.396;2023-05-20T00:01:03;19.00;18.00;11.20
62778;PMS7003;48821;48.796;2.396;2023-05-20T00:02:15;22.80;16.80;11.40
62778;PMS7003;48821;48.796;2.396;2023-05-20T00:03:26;18.40;18.20;12.60
62778;PMS7003;48821;48.796;2.396;2023-05-20T00:04:38;18.50;15.50;11.00
62778;PMS7003;48821;48.796;2.396;2023-05-20T00:05:51;13.00;12.00;10.67
62778;PMS7003;48821;48.796;2.396;2023-05-20T00:07:02;18.33;16.67;12.33
62778;PMS7003;48821;48.796;2.396;2023-05-20T00:08:13;19.00;16.00;12.00
62778;PMS7003;48821;48.796;2.396;2023-05-20T00:09:25;21.00;16.33;10.67
62778;PMS7003;48821;48.796;2.396;2023-05-20T00:10:38;20.57;17.43;12.86
62778;PMS7003;48821;48.796;2.396;2023-05-20T00:11:49;5.00;0.00;0.00
62778;PMS7003;48821;48.796;2.396;2023-05-20T00:13:00;18.00;16.67;12.33
62778;PMS7003;48821;48.796;2.396;2023-05-20T00:14:12;18.80;17.00;11.00
62778;PMS7003;48821;48.796;2.396;2023-05-20T00:15:24;20.00;17.60;11.80
62778;PMS7003;48821;48.796;2.396;2023-05-20T00:16:36;18.80;16.40;11.80
62778;PMS7003;48821;48.796;2.396;2023-05-20T00:17:48;21.00;17.14;11.29
62778;PMS7003;48821;48.796;2.396;2023-05-20T00:19:00;14.60;14.60;11.20
62778;PMS7003;48821;48.796;2.396;2023-05-20T00:20:13;16.00;12.86;10.43
62778;PMS7003;48821;48.796;2.396;2023-05-20T00:21:24;16.67;16.00;12.00
62778;PMS7003;48821;48.796;2.396;2023-05-20T00:22:36;14.20;13.40;9.80
62778;PMS7003;48821;48.796;2.396;2023-05-20T00:23:48;19.80;16.60;10.40
62778;PMS7003;48821;48.796;2.396;2023-05-20T00:25:00;16.40;16.40;12.20
62778;PMS7003;48821;48.796;2.396;2023-05-20T00:26:13;18.57;15.43;11.00
62778;PMS7003;48821;48.796;2.396;2023-05-20T00:27:25;23.14;14.43;9.71
62778;PMS7003;48821;48.796;2.396;2023-05-20T00:28:37;18.40;14.20;10.00
62778;PMS7003;48821;48.796;2.396;2023-05-20T00:29:49;18.60;18.60;11.20
62778;PMS7003;48821;48.796;2.396;2023-05-20T00:31:01;17.60;14.20;8.80
62778;PMS7003;48821;48.796;2.396;2023-05-20T00:32:14;18.71;15.00;9.43
62778;PMS7003;48821;48.796;2.396;2023-05-20T00:33:27;15.00;13.86;9.29
62778;PMS7003;48821;48.796;2.396;2023-05-20T00:34:37;18.00;15.00;11.00
62778;PMS7003;48821;48.796;2.396;2023-05-20T00:35:50;20.57;16.71;10.29
62778;PMS7003;48821;48.796;2.396;2023-05-20T00:37:03;25.00;16.29;11.57
62778;PMS7003;48821;48.796;2.396;2023-05-20T00:38:14;19.00;15.60;10.40
62778;PMS7003;48821;48.796;2.396;2023-05-20T00:39:25;13.25;11.75;8.00
62778;PMS7003;48821;48.796;2.396;2023-05-20T00:40:37;15.40;13.80;10.40
62778;PMS7003;48821;48.796;2.396;2023-05-20T00:41:47;19.00;16.00;10.00
62778;PMS7003;48821;48.796;2.396;2023-05-20T00:42:59;19.00;14.80;9.80
62778;PMS7003;48821;48.796;2.396;2023-05-20T00:44:10;16.33;14.67;10.00
62778;PMS7003;48821;48.796;2.396;2023-05-20T00:45:21;22.00;16.00;11.00
62778;PMS7003;48821;48.796;2.396;2023-05-20T00:46:34;17.00;14.00;9.57
62778;PMS7003;48821;48.796;2.396;2023-05-20T00:47:45;21.67;12.67;9.33
62778;PMS7003;48821;48.796;2.396;2023-05-20T00:48:58;19.43;15.86;10.00
62778;PMS7003;48821;48.796;2.396;2023-05-20T00:50:10;17.60;15.80;10.20
62778;PMS7003;48821;48.796;2.396;2023-05-20T00:51:23;15.29;11.43;9.00
62778;PMS7003;48821;48.796;2.396;2023-05-20T00:52:34;17.00;15.00;9.67
62778;PMS7003;48821;48.796;2.396;2023-05-20T00:53:45;16.50;12.50;9.50
62778;PMS7003;48821;48.796;2.396;2023-05-20T00:54:56;15.00;14.00;9.50
62778;PMS7003;48821;48.796;2.396;2023-05-20T00:56:07;16.00;15.50;10.50
62778;PMS7003;48821;48.796;2.396;2023-05-20T00:57:19;17.33;16.00;11.33
62778;PMS7003;48821;48.796;2.396;2023-05-20T00:58:30;17.67;16.00;10.67
62778;PMS7003;48821;48.796;2.396;2023-05-20T00:59:42;20.67;20.33;13.67
62778;PMS7003;48821;48.796;2.396;2023-05-20T01:00:55;15.43;14.86;10.43
62778;PMS7003;48821;48.796;2.396;2023-05-20T01:02:06;18.67;16.67;11.00
62778;PMS7003;48821;48.796;2.396;2023-05-20T01:03:19;20.43;15.71;11.29
62778;PMS7003;48821;48.796;2.396;2023-05-20T01:04:32;16.67;14.67;11.33
62778;PMS7003;48821;48.796;2.396;2023-05-20T01:05:43;20.67;15.00;11.00
62778;PMS7003;48821;48.796;2.396;2023-05-20T01:06:53;17.50;11.50;8.50
62778;PMS7003;48821;48.796;2.396;2023-05-20T01:08:05;23.67;16.67;9.33
62778;PMS7003;48821;48.796;2.396;2023-05-20T01:09:18;17.43;14.57;10.00
62778;PMS7003;48821;48.796;2.396;2023-05-20T01:10:29;13.50;9.00;6.00
62778;PMS7003;48821;48.796;2.396;2023-05-20T01:11:43;15.00;12.50;9.00
62778;PMS7003;48821;48.796;2.396;2023-05-20T01:12:57;22.50;18.00;12.00
62778;PMS7003;48821;48.796;2.396;2023-05-20T01:14:11;16.00;14.67;10.33
62778;PMS7003;48821;48.796;2.396;2023-05-20T01:15:23;16.67;14.00;10.33
62778;PMS7003;48821;48.796;2.396;2023-05-20T01:16:35;16.33;16.00;10.67
62778;PMS7003;48821;48.796;2.396;2023-05-20T01:17:46;17.50;14.50;9.50
62778;PMS7003;48821;48.796;2.396;2023-05-20T01:18:57;15.50;13.00;8.00
62778;PMS7003;48821;48.796;2.396;2023-05-20T01:20:09;19.33;15.00;10.00
62778;PMS7003;48821;48.796;2.396;2023-05-20T01:21:21;20.33;14.00;11.00
62778;PMS7003;48821;48.796;2.396;2023-05-20T01:22:33;15.67;14.33;11.00
62778;PMS7003;48821;48.796;2.396;2023-05-20T01:23:46;19.33;16.67;10.33
62778;PMS7003;48821;48.796;2.396;2023-05-20T01:24:57;18.00;18.00;11.50
62778;PMS7003;48821;48.796;2.396;2023-05-20T01:26:10;18.14;15.57;10.57
62778;PMS7003;48821;48.796;2.396;2023-05-20T01:27:23;17.33;14.00;8.33
62778;PMS7003;48821;48.796;2.396;2023-05-20T01:28:34;21.00;18.50;14.00
62778;PMS7003;48821;48.796;2.396;2023-05-20T01:29:46;14.67;13.67;10.00
62778;PMS7003;48821;48.796;2.396;2023-05-20T01:31:04;17.33;15.67;11.00
62778;PMS7003;48821;48.796;2.396;2023-05-20T01:32:21;15.67;10.67;9.00
62778;PMS7003;48821;48.796;2.396;2023-05-20T01:33:35;13.17;10.50;9.33
62778;PMS7003;48821;48.796;2.396;2023-05-20T01:34:49;15.83;14.00;10.00
62778;PMS7003;48821;48.796;2.396;2023-05-20T01:36:00;17.50;14.00;9.50
62778;PMS7003;48821;48.796;2.396;2023-05-20T01:37:11;15.50;14.00;9.50
62778;PMS7003;48821;48.796;2.396;2023-05-20T01:38:23;15.00;14.00;10.00
62778;PMS7003;48821;48.796;2.396;2023-05-20T01:39:35;19.00;13.33;10.00
62778;PMS7003;48821;48.796;2.396;2023-05-20T01:40:50;14.40;13.80;10.00
62778;PMS7003;48821;48.796;2.396;2023-05-20T01:42:02;17.20;12.60;10.00
62778;PMS7003;48821;48.796;2.396;2023-05-20T01:43:14;17.33;14.33;10.33
62778;PMS7003;48821;48.796;2.396;2023-05-20T01:44:26;16.00;10.50;8.50
62778;PMS7003;48821;48.796;2.396;2023-05-20T01:45:40;17.80;14.00;10.20
62778;PMS7003;48821;48.796;2.396;2023-05-20T01:46:51;16.67;14.00;9.33
62778;PMS7003;48821;48.796;2.396;2023-05-20T01:48:01;16.50;13.50;9.00
62778;PMS7003;48821;48.796;2.396;2023-05-20T01:49:14;16.57;14.14;10.29
62778;PMS7003;48821;48.796;2.396;2023-05-20T01:50:27;19.86;18.00;11.14
62778;PMS7003;48821;48.796;2.396;2023-05-20T01:51:39;16.40;14.60;11.20
62778;PMS7003;48821;48.796;2.396;2023-05-20T01:52:51;14.40;11.80;9.40
62778;PMS7003;48821;48.796;2.396;2023-05-20T01:54:01;15.00;14.50;9.00
62778;PMS7003;48821;48.796;2.396;2023-05-20T01:55:13;16.80;16.60;11.00
62778;PMS7003;48821;48.796;2.396;2023-05-20T01:56:25;15.80;15.80;11.40
62778;PMS7003;48821;48.796;2.396;2023-05-20T01:57:36;17.50;13.50;9.00
62778;PMS7003;48821;48.796;2.396;2023-05-20T01:58:49;15.29;13.71;10.14
62778;PMS7003;48821;48.796;2.396;2023-05-20T02:00:02;16.50;13.67;9.50
62778;PMS7003;48821;48.796;2.396;2023-05-20T02:01:13;17.40;16.20;9.60
62778;PMS7003;48821;48.796;2.396;2023-05-20T02:02:26;17.14;15.29;11.00
62778;PMS7003;48821;48.796;2.396;2023-05-20T02:03:39;20.71;17.14;10.57
62778;PMS7003;48821;48.796;2.396;2023-05-20T02:04:52;16.20;15.60;10.60
62778;PMS7003;48821;48.796;2.396;2023-05-20T02:06:04;14.67;14.33;10.00
62778;PMS7003;48821;48.796;2.396;2023-05-20T02:07:17;21.33;16.67;10.67
62778;PMS7003;48821;48.796;2.396;2023-05-20T02:08:28;20.40;17.00;11.20
62778;PMS7003;48821;48.796;2.396;2023-05-20T02:09:40;16.40;15.40;10.80
62778;PMS7003;48821;48.796;2.396;2023-05-20T02:10:52;19.80;17.20;11.40
62778;PMS7003;48821;48.796;2.396;2023-05-20T02:12:05;18.00;15.00;11.57
62778;PMS7003;48821;48.796;2.396;2023-05-20T02:13:17;17.67;15.33;10.67
62778;PMS7003;48821;48.796;2.396;2023-05-20T02:14:28;16.33;15.67;10.33
62778;PMS7003;48821;48.796;2.396;2023-05-20T02:15:41;16.00;12.86;9.71
62778;PMS7003;48821;48.796;2.396;2023-05-20T02:16:53;24.86;19.29;11.57
62778;PMS7003;48821;48.796;2.396;2023-05-20T02:18:05;15.80;15.40;9.80
62778;PMS7003;48821;48.796;2.396;2023-05-20T02:19:17;16.00;15.00;10.00
62778;PMS7003;48821;48.796;2.396;2023-05-20T02:20:36;18.67;16.67;10.00
62778;PMS7003;48821;48.796;2.396;2023-05-20T02:21:47;16.67;14.33;10.00
62778;PMS7003;48821;48.796;2.396;2023-05-20T02:22:59;20.80;14.80;9.80
62778;PMS7003;48821;48.796;2.396;2023-05-20T02:24:10;16.00;13.25;9.25
62778;PMS7003;48821;48.796;2.396;2023-05-20T02:25:20;17.00;14.50;9.00
62778;PMS7003;48821;48.796;2.396;2023-05-20T02:26:32;21.40;17.20;11.60
62778;PMS7003;48821;48.796;2.396;2023-05-20T02:27:43;11.50;11.50;8.50
62778;PMS7003;48821;48.796;2.396;2023-05-20T02:28:56;16.71;15.29;10.71
62778;PMS7003;48821;48.796;2.396;2023-05-20T02:30:08;18.40;16.20;12.60
62778;PMS7003;48821;48.796;2.396;2023-05-20T02:31:20;20.00;17.00;10.67
62778;PMS7003;48821;48.796;2.396;2023-05-20T02:32:31;10.50;10.50;7.00
62778;PMS7003;48821;48.796;2.396;2023-05-20T02:33:43;16.00;16.00;12.00
62778;PMS7003;48821;48.796;2.396;2023-05-20T02:34:55;17.67;16.00;10.67
62778;PMS7003;48821;48.796;2.396;2023-05-20T02:36:08;18.71;17.43;11.71
62778;PMS7003;48821;48.796;2.396;2023-05-20T02:37:19;12.50;10.50;7.50
62778;PMS7003;48821;48.796;2.396;2023-05-20T02:38:31;17.67;13.67;11.00
62778;PMS7003;48821;48.796;2.396;2023-05-20T02:39:43;23.80;17.00;12.40
62778;PMS7003;48821;48.796;2.396;2023-05-20T02:40:55;19.29;15.86;11.86
62778;PMS7003;48821;48.796;2.396;2023-05-20T02:42:08;18.00;14.00;9.00
62778;PMS7003;48821;48.796;2.396;2023-05-20T02:43:19;18.00;16.00;11.00
62778;PMS7003;48821;48.796;2.396;2023-05-20T02:44:31;26.40;16.00;11.60
62778;PMS7003;48821;48.796;2.396;2023-05-20T02:45:43;20.57;17.57;11.57
62778;PMS7003;48821;48.796;2.396;2023-05-20T02:46:56;16.71;14.57;10.71
62778;PMS7003;48821;48.796;2.396;2023-05-20T02:48:09;21.71;15.29;9.71
62778;PMS7003;48821;48.796;2.396;2023-05-20T02:49:21;22.40;17.40;11.00
62778;PMS7003;48821;48.796;2.396;2023-05-20T02:50:33;20.67;15.67;11.00
62778;PMS7003;48821;48.796;2.396;2023-05-20T02:51:45;14.40;14.20;9.20
62778;PMS7003;48821;48.796;2.396;2023-05-20T02:52:56;18.80;15.00;9.80
62778;PMS7003;48821;48.796;2.396;2023-05-20T02:54:09;17.29;16.29;11.57
62778;PMS7003;48821;48.796;2.396;2023-05-20T02:55:22;18.00;15.43;10.71
62778;PMS7003;48821;48.796;2.396;2023-05-20T02:56:34;19.40;14.40;9.40
62778;PMS7003;48821;48.796;2.396;2023-05-20T02:57:46;16.80;15.20;10.40
62778;PMS7003;48821;48.796;2.396;2023-05-20T02:58:58;15.40;15.40;11.60
62778;PMS7003;48821;48.796;2.396;2023-05-20T03:00:10;18.00;15.00;11.33
62778;PMS7003;48821;48.796;2.396;2023-05-20T03:01:21;19.67;16.67;11.00
62778;PMS7003;48821;48.796;2.396;2023-05-20T03:02:33;20.67;17.00;12.00
62778;PMS7003;48821;48.796;2.396;2023-05-20T03:03:43;16.00;15.00;11.00
62778;PMS7003;48821;48.796;2.396;2023-05-20T03:04:55;19.00;17.20;13.20
62778;PMS7003;48821;48.796;2.396;2023-05-20T03:06:08;18.71;17.71;11.43
62778;PMS7003;48821;48.796;2.396;2023-05-20T03:07:21;19.00;17.14;12.00
62778;PMS7003;48821;48.796;2.396;2023-05-20T03:08:32;23.67;19.00;14.00
62778;PMS7003;48821;48.796;2.396;2023-05-20T03:09:44;16.20;15.40;10.40
62778;PMS7003;48821;48.796;2.396;2023-05-20T03:10:57;18.14;14.71;10.43
62778;PMS7003;48821;48.796;2.396;2023-05-20T03:12:10;19.57;17.43;11.57
62778;PMS7003;48821;48.796;2.396;2023-05-20T03:13:22;15.40;13.20;10.20
62778;PMS7003;48821;48.796;2.396;2023-05-20T03:14:33;16.50;15.25;11.25
62778;PMS7003;48821;48.796;2.396;2023-05-20T03:15:44;22.00;14.67;10.33
62778;PMS7003;48821;48.796;2.396;2023-05-20T03:16:55;12.50;9.00;4.00
62778;PMS7003;48821;48.796;2.396;2023-05-20T03:18:07;13.40;12.00;10.20
62778;PMS7003;48821;48.796;2.396;2023-05-20T03:19:21;22.33;20.33;14.67
62778;PMS7003;48821;48.796;2.396;2023-05-20T03:20:33;24.80;18.00;13.00
62778;PMS7003;48821;48.796;2.396;2023-05-20T03:21:45;19.50;17.50;12.00
62778;PMS7003;48821;48.796;2.396;2023-05-20T03:22:57;26.20;21.60;14.20
62778;PMS7003;48821;48.796;2.396;2023-05-20T03:24:09;18.67;15.00;10.67
62778;PMS7003;48821;48.796;2.396;2023-05-20T03:25:21;24.40;18.80;13.60
62778;PMS7003;48821;48.796;2.396;2023-05-20T03:26:33;21.20;18.20;12.80
62778;PMS7003;48821;48.796;2.396;2023-05-20T03:27:46;16.50;15.00;11.00
62778;PMS7003;48821;48.796;2.396;2023-05-20T03:28:58;25.40;20.20;12.60
62778;PMS7003;48821;48.796;2.396;2023-05-20T03:30:11;21.86;19.14;12.71
62778;PMS7003;48821;48.796;2.396;2023-05-20T03:31:22;19.00;16.00;10.50
62778;PMS7003;48821;48.796;2.396;2023-05-20T03:32:34;20.20;18.40;14.20
62778;PMS7003;48821;48.796;2.396;2023-05-20T03:33:46;17.00;17.00;13.80
62778;PMS7003;48821;48.796;2.396;2023-05-20T03:34:58;25.00;19.60;14.20
62778;PMS7003;48821;48.796;2.396;2023-05-20T03:36:10;23.20;19.80;15.00
62778;PMS7003;48821;48.796;2.396;2023-05-20T03:37:22;25.80;15.80;11.80
62778;PMS7003;48821;48.796;2.396;2023-05-20T03:38:34;23.67;17.00;11.00
62778;PMS7003;48821;48.796;2.396;2023-05-20T03:39:46;19.80;19.80;13.20
62778;PMS7003;48821;48.796;2.396;2023-05-20T03:40:58;25.20;20.60;12.20
62778;PMS7003;48821;48.796;2.396;2023-05-20T03:42:10;23.80;21.00;16.00
62778;PMS7003;48821;48.796;2.396;2023-05-20T03:43:22;25.80;19.60;15.20
62778;PMS7003;48821;48.796;2.396;2023-05-20T03:44:34;25.00;20.40;15.20
62778;PMS7003;48821;48.796;2.396;2023-05-20T03:45:46;28.29;19.14;14.00
62778;PMS7003;48821;48.796;2.396;2023-05-20T03:46:58;23.40;21.40;13.40
62778;PMS7003;48821;48.796;2.396;2023-05-20T03:48:10;21.40;20.00;13.00
62778;PMS7003;48821;48.796;2.396;2023-05-20T03:49:23;19.43;18.29;13.14
62778;PMS7003;48821;48.796;2.396;2023-05-20T03:50:35;18.60;16.20;11.80
62778;PMS7003;48821;48.796;2.396;2023-05-20T03:51:47;20.60;17.00;11.80
62778;PMS7003;48821;48.796;2.396;2023-05-20T03:53:00;26.71;22.71;14.00
62778;PMS7003;48821;48.796;2.396;2023-05-20T03:54:13;25.00;21.43;13.43
62778;PMS7003;48821;48.796;2.396;2023-05-20T03:55:25;25.00;21.00;14.50
62778;PMS7003;48821;48.796;2.396;2023-05-20T03:56:36;18.50;17.00;13.00
62778;PMS7003;48821;48.796;2.396;2023-05-20T03:57:48;20.60;19.40;14.80
62778;PMS7003;48821;48.796;2.396;2023-05-20T03:59:00;23.20;17.60;12.60
62778;PMS7003;48821;48.796;2.396;2023-05-20T04:00:12;20.67;19.00;11.33
62778;PMS7003;48821;48.796;2.396;2023-05-20T04:01:23;20.50;18.00;13.50
62778;PMS7003;48821;48.796;2.396;2023-05-20T04:02:34;26.00;18.50;14.00
62778;PMS7003;48821;48.796;2.396;2023-05-20T04:03:46;22.80;20.60;14.40
62778;PMS7003;48821;48.796;2.396;2023-05-20T04:04:59;19.43;17.29;13.57
62778;PMS7003;48821;48.796;2.396;2023-05-20T04:06:12;19.00;19.00;15.00
62778;PMS7003;48821;48.796;2.396;2023-05-20T04:07:24;21.33;18.00;10.33
62778;PMS7003;48821;48.796;2.396;2023-05-20T04:08:36;24.86;19.43;13.00
62778;PMS7003;48821;48.796;2.396;2023-05-20T04:09:48;18.40;17.60;13.00
62778;PMS7003;48821;48.796;2.396;2023-05-20T04:11:00;19.33;18.67;14.00
62778;PMS7003;48821;48.796;2.396;2023-05-20T04:12:12;24.20;20.40;14.20
62778;PMS7003;48821;48.796;2.396;2023-05-20T04:13:24;20.67;19.00;13.33
62778;PMS7003;48821;48.796;2.396;2023-05-20T04:14:36;24.60;21.60;15.00
62778;PMS7003;48821;48.796;2.396;2023-05-20T04:15:48;22.00;20.67;14.67
62778;PMS7003;48821;48.796;2.396;2023-05-20T04:17:02;27.67;19.67;13.00
62778;PMS7003;48821;48.796;2.396;2023-05-20T04:18:12;27.50;21.50;14.00
62778;PMS7003;48821;48.796;2.396;2023-05-20T04:19:24;23.33;21.67;15.67
62778;PMS7003;48821;48.796;2.396;2023-05-20T04:20:38;21.67;20.00;14.00
62778;PMS7003;48821;48.796;2.396;2023-05-20T04:21:51;21.00;20.00;15.00
62778;PMS7003;48821;48.796;2.396;2023-05-20T04:23:01;22.50;21.00;14.50
62778;PMS7003;48821;48.796;2.396;2023-05-20T04:24:13;26.60;21.40;13.40
62778;PMS7003;48821;48.796;2.396;2023-05-20T04:25:25;24.80;18.40;11.60
62778;PMS7003;48821;48.796;2.396;2023-05-20T04:26:37;23.67;21.33;14.00
62778;PMS7003;48821;48.796;2.396;2023-05-20T04:27:49;23.60;20.80;15.20
62778;PMS7003;48821;48.796;2.396;2023-05-20T04:29:01;21.80;19.20;13.40
62778;PMS7003;48821;48.796;2.396;2023-05-20T04:30:13;22.50;19.50;14.00
62778;PMS7003;48821;48.796;2.396;2023-05-20T04:31:25;31.40;23.80;15.40
62778;PMS7003;48821;48.796;2.396;2023-05-20T04:32:37;25.67;21.00;15.00
62778;PMS7003;48821;48.796;2.396;2023-05-20T04:33:49;24.80;19.20;10.80
62778;PMS7003;48821;48.796;2.396;2023-05-20T04:35:00;24.40;20.60;15.40
62778;PMS7003;48821;48.796;2.396;2023-05-20T04:36:12;25.00;20.40;14.60
62778;PMS7003;48821;48.796;2.396;2023-05-20T04:37:25;19.50;18.00;11.00
62778;PMS7003;48821;48.796;2.396;2023-05-20T04:38:37;29.00;21.00;15.00
62778;PMS7003;48821;48.796;2.396;2023-05-20T04:39:50;28.71;23.00;15.14
62778;PMS7003;48821;48.796;2.396;2023-05-20T04:41:02;19.00;14.67;10.33
62778;PMS7003;48821;48.796;2.396;2023-05-20T04:42:14;25.60;21.60;15.20
62778;PMS7003;48821;48.796;2.396;2023-05-20T04:43:28;28.67;18.00;13.67
62778;PMS7003;48821;48.796;2.396;2023-05-20T04:44:41;29.00;21.00;15.00
62778;PMS7003;48821;48.796;2.396;2023-05-20T04:45:53;20.80;20.40;15.20
62778;PMS7003;48821;48.796;2.396;2023-05-20T04:47:05;23.00;19.80;14.40
62778;PMS7003;48821;48.796;2.396;2023-05-20T04:48:19;22.00;21.67;14.00
62778;PMS7003;48821;48.796;2.396;2023-05-20T04:49:32;26.67;21.67;16.00
62778;PMS7003;48821;48.796;2.396;2023-05-20T04:50:43;23.00;20.67;14.67
62778;PMS7003;48821;48.796;2.396;2023-05-20T04:51:55;25.80;20.80;14.20
62778;PMS7003;48821;48.796;2.396;2023-05-20T04:53:07;20.60;19.00;11.80
62778;PMS7003;48821;48.796;2.396;2023-05-20T04:54:19;23.00;20.00;14.67
62778;PMS7003;48821;48.796;2.396;2023-05-20T04:55:31;24.60;21.20;14.60
62778;PMS7003;48821;48.796;2.396;2023-05-20T04:56:43;24.40;20.80;16.00
62778;PMS7003;48821;48.796;2.396;2023-05-20T04:57:56;26.57;23.00;15.57
62778;PMS7003;48821;48.796;2.396;2023-05-20T04:59:08;23.80;22.60;15.40
62778;PMS7003;48821;48.796;2.396;2023-05-20T05:00:19;29.00;22.00;15.00
62778;PMS7003;48821;48.796;2.396;2023-05-20T05:01:30;26.60;24.00;18.00
62778;PMS7003;48821;48.796;2.396;2023-05-20T05:02:41;29.50;21.50;14.00
62778;PMS7003;48821;48.796;2.396;2023-05-20T05:03:52;29.20;23.00;15.80
62778;PMS7003;48821;48.796;2.396;2023-05-20T05:05:05;27.20;25.00;16.60
62778;PMS7003;48821;48.796;2.396;2023-05-20T05:06:16;26.40;22.60;17.20
62778;PMS7003;48821;48.796;2.396;2023-05-20T05:07:28;28.80;24.40;15.80
62778;PMS7003;48821;48.796;2.396;2023-05-20T05:08:42;30.75;24.75;17.13
62778;PMS7003;48821;48.796;2.396;2023-05-20T05:09:52;21.50;19.50;14.00
62778;PMS7003;48821;48.796;2.396;2023-05-20T05:11:05;26.14;22.86;16.86
62778;PMS7003;48821;48.796;2.396;2023-05-20T05:12:17;25.40;24.80;16.20
62778;PMS7003;48821;48.796;2.396;2023-05-20T05:13:29;27.00;21.20;14.40
62778;PMS7003;48821;48.796;2.396;2023-05-20T05:14:41;27.80;21.60;15.00
62778;PMS7003;48821;48.796;2.396;2023-05-20T05:15:59;29.20;25.80;16.00
62778;PMS7003;48821;48.796;2.396;2023-05-20T05:17:10;25.00;22.00;15.00
62778;PMS7003;48821;48.796;2.396;2023-05-20T05:18:21;27.00;23.00;16.20
62778;PMS7003;48821;48.796;2.396;2023-05-20T05:19:32;30.60;27.40;16.60
62778;PMS7003;48821;48.796;2.396;2023-05-20T05:20:44;26.80;21.40;16.40
62778;PMS7003;48821;48.796;2.396;2023-05-20T05:21:56;27.20;23.00;16.80
62778;PMS7003;48821;48.796;2.396;2023-05-20T05:23:08;21.60;17.00;14.60
62778;PMS7003;48821;48.796;2.396;2023-05-20T05:24:19;27.80;24.00;15.80
62778;PMS7003;48821;48.796;2.396;2023-05-20T05:25:30;23.33;18.67;14.00
62778;PMS7003;48821;48.796;2.396;2023-05-20T05:26:42;25.33;21.33;14.67
62778;PMS7003;48821;48.796;2.396;2023-05-20T05:27:55;28.57;23.14;16.71
62778;PMS7003;48821;48.796;2.396;2023-05-20T05:29:07;31.60;23.00;16.60
62778;PMS7003;48821;48.796;2.396;2023-05-20T05:30:19;36.20;27.40;17.80
62778;PMS7003;48821;48.796;2.396;2023-05-20T05:31:31;29.50;25.50;17.50
62778;PMS7003;48821;48.796;2.396;2023-05-20T05:32:43;23.20;21.40;14.80
62778;PMS7003;48821;48.796;2.396;2023-05-20T05:33:55;29.00;22.60;17.20
62778;PMS7003;48821;48.796;2.396;2023-05-20T05:35:06;27.80;23.60;16.40
62778;PMS7003;48821;48.796;2.396;2023-05-20T05:36:16;27.00;24.00;16.50
62778;PMS7003;48821;48.796;2.396;2023-05-20T05:37:27;32.40;26.00;18.20
62778;PMS7003;48821;48.796;2.396;2023-05-20T05:38:39;28.20;25.40;16.20
62778;PMS7003;48821;48.796;2.396;2023-05-20T05:39:51;24.20;18.80;13.20
62778;PMS7003;48821;48.796;2.396;2023-05-20T05:41:04;30.14;25.57;17.29
62778;PMS7003;48821;48.796;2.396;2023-05-20T05:42:16;27.67;24.33;16.00
62778;PMS7003;48821;48.796;2.396;2023-05-20T05:43:28;26.00;21.80;16.40
62778;PMS7003;48821;48.796;2.396;2023-05-20T05:44:40;20.40;19.20;14.20
62778;PMS7003;48821;48.796;2.396;2023-05-20T05:45:51;25.80;21.60;16.00
62778;PMS7003;48821;48.796;2.396;2023-05-20T05:47:04;26.40;21.60;15.60
62778;PMS7003;48821;48.796;2.396;2023-05-20T05:48:15;20.00;18.00;14.00
62778;PMS7003;48821;48.796;2.396;2023-05-20T05:49:27;22.00;21.00;15.40
62778;PMS7003;48821;48.796;2.396;2023-05-20T05:50:43;24.43;22.00;14.86
62778;PMS7003;48821;48.796;2.396;2023-05-20T05:51:54;27.50;21.50;15.00
62778;PMS7003;48821;48.796;2.396;2023-05-20T05:53:06;29.40;25.40;16.00
62778;PMS7003;48821;48.796;2.396;2023-05-20T05:54:18;27.00;24.40;16.40
62778;PMS7003;48821;48.796;2.396;2023-05-20T05:55:32;29.33;23.67;16.67
62778;PMS7003;48821;48.796;2.396;2023-05-20T05:56:43;28.40;25.40;16.80
62778;PMS7003;48821;48.796;2.396;2023-05-20T05:57:55;32.60;28.20;19.20
62778;PMS7003;48821;48.796;2.396;2023-05-20T05:59:08;33.13;28.75;18.00
62778;PMS7003;48821;48.796;2.396;2023-05-20T06:00:20;24.00;21.67;15.33
62778;PMS7003;48821;48.796;2.396;2023-05-20T06:01:31;32.00;28.40;18.60
62778;PMS7003;48821;48.796;2.396;2023-05-20T06:02:42;26.60;24.00;17.40
62778;PMS7003;48821;48.796;2.396;2023-05-20T06:03:54;30.60;26.60;16.80
62778;PMS7003;48821;48.796;2.396;2023-05-20T06:05:07;27.40;24.20;18.40
62778;PMS7003;48821;48.796;2.396;2023-05-20T06:06:18;27.60;23.40;16.40
62778;PMS7003;48821;48.796;2.396;2023-05-20T06:07:30;26.40;21.80;15.20
62778;PMS7003;48821;48.796;2.396;2023-05-20T06:08:44;34.25;25.13;17.13
62778;PMS7003;48821;48.796;2.396;2023-05-20T06:09:58;35.75;27.25;18.13
62778;PMS7003;48821;48.796;2.396;2023-05-20T06:11:10;28.80;24.20;18.20
62778;PMS7003;48821;48.796;2.396;2023-05-20T06:12:22;29.80;25.40;17.00
62778;PMS7003;48821;48.796;2.396;2023-05-20T06:13:35;32.88;29.00;16.88
62778;PMS7003;48821;48.796;2.396;2023-05-20T06:14:46;31.00;27.00;17.00
62778;PMS7003;48821;48.796;2.396;2023-05-20T06:15:58;25.20;23.20;15.80
62778;PMS7003;48821;48.796;2.396;2023-05-20T06:17:10;33.00;26.60;17.60
62778;PMS7003;48821;48.796;2.396;2023-05-20T06:18:21;30.20;27.00;16.80
62778;PMS7003;48821;48.796;2.396;2023-05-20T06:19:33;24.20;21.60;15.40
62778;PMS7003;48821;48.796;2.396;2023-05-20T06:20:52;21.86;19.00;13.57
62778;PMS7003;48821;48.796;2.396;2023-05-20T06:22:04;25.67;21.67;15.00
62778;PMS7003;48821;48.796;2.396;2023-05-20T06:23:17;26.57;21.14;15.29
62778;PMS7003;48821;48.796;2.396;2023-05-20T06:24:29;26.60;23.60;14.80
62778;PMS7003;48821;48.796;2.396;2023-05-20T06:25:42;36.13;26.38;18.63
62778;PMS7003;48821;48.796;2.396;2023-05-20T06:26:54;24.60;21.60;16.40
62778;PMS7003;48821;48.796;2.396;2023-05-20T06:28:06;22.00;19.00;12.40
62778;PMS7003;48821;48.796;2.396;2023-05-20T06:29:18;30.60;22.80;16.00
62778;PMS7003;48821;48.796;2.396;2023-05-20T06:30:32;32.13;24.13;17.38
62778;PMS7003;48821;48.796;2.396;2023-05-20T06:31:43;28.00;23.60;17.40
62778;PMS7003;48821;48.796;2.396;2023-05-20T06:32:54;26.33;24.00;17.00
62778;PMS7003;48821;48.796;2.396;2023-05-20T06:34:06;26.60;21.80;18.00
62778;PMS7003;48821;48.796;2.396;2023-05-20T06:35:18;33.20;26.20;17.60
62778;PMS7003;48821;48.796;2.396;2023-05-20T06:36:30;27.60;21.80;16.40
62778;PMS7003;48821;48.796;2.396;2023-05-20T06:37:41;31.40;24.20;17.60
62778;PMS7003;48821;48.796;2.396;2023-05-20T06:38:51;24.50;24.00;16.50
62778;PMS7003;48821;48.796;2.396;2023-05-20T06:40:03;25.00;23.60;16.60
62778;PMS7003;48821;48.796;2.396;2023-05-20T06:41:15;30.67;26.33;17.00
62778;PMS7003;48821;48.796;2.396;2023-05-20T06:42:26;26.20;23.20;18.00
62778;PMS7003;48821;48.796;2.396;2023-05-20T06:43:37;34.00;30.20;17.80
62778;PMS7003;48821;48.796;2.396;2023-05-20T06:44:50;35.33;24.00;16.67